createdAt,value
2019-01-27T00:02:40.556Z,83.33
2019-01-27T00:06:41.965Z,83.99
2019-01-27T00:10:43.403Z,83.35
2019-01-27T00:14:44.964Z,83.35
2019-01-27T00:18:46.502Z,83.55
2019-01-27T00:22:51.193Z,83.49
2019-01-27T00:26:52.496Z,83.46
2019-01-27T00:30:53.896Z,83.82
2019-01-27T00:34:55.070Z,83.67
2019-01-27T00:38:56.316Z,83.59
2019-01-27T00:42:57.427Z,83.93
2019-01-27T00:46:58.631Z,83.99
2019-01-27T00:50:59.967Z,83.79
2019-01-27T00:55:01.231Z,83.36
2019-01-27T00:59:02.441Z,83.49
2019-01-27T01:03:03.749Z,83.35
2019-01-27T01:07:04.997Z,83.61
2019-01-27T01:11:06.867Z,84.14
2019-01-27T01:15:09.334Z,83.61
2019-01-27T01:19:11.250Z,83.18
2019-01-27T01:23:12.744Z,83.69
2019-01-27T01:27:13.877Z,83.90
2019-01-27T01:31:15.154Z,83.70
2019-01-27T01:35:16.359Z,83.87
2019-01-27T01:39:17.651Z,83.77
2019-01-27T01:43:19.273Z,84.05
2019-01-27T01:47:20.573Z,83.30
2019-01-27T01:51:21.921Z,83.26
2019-01-27T01:55:23.435Z,83.36
2019-01-27T01:59:25.658Z,82.52
2019-01-27T02:03:26.950Z,82.86
2019-01-27T02:07:28.458Z,83.34
2019-01-27T02:11:29.678Z,83.10
2019-01-27T02:16:03.848Z,83.19
2019-01-27T02:20:05.352Z,83.28
2019-01-27T02:24:07.402Z,83.22
2019-01-27T02:28:08.747Z,83.79
2019-01-27T02:32:09.929Z,83.31
2019-01-27T02:36:11.215Z,82.62
2019-01-27T02:40:12.639Z,82.56
2019-01-27T02:44:14.226Z,82.72
2019-01-27T02:48:15.567Z,82.48
2019-01-27T02:52:17.161Z,82.05
2019-01-27T02:56:18.472Z,82.03
2019-01-27T03:00:19.739Z,81.76
2019-01-27T03:04:20.965Z,81.45
2019-01-27T03:08:22.697Z,81.30
2019-01-27T03:12:24.348Z,81.49
2019-01-27T03:16:25.489Z,81.54
2019-01-27T03:20:27.468Z,81.26
2019-01-27T03:24:29.076Z,81.32
2019-01-27T03:28:30.731Z,81.32
2019-01-27T03:32:32.324Z,80.92
2019-01-27T03:36:33.997Z,80.80
2019-01-27T03:40:35.240Z,80.67
2019-01-27T03:44:36.556Z,80.48
2019-01-27T03:48:38.051Z,80.93
2019-01-27T03:52:39.157Z,83.34
2019-01-27T03:56:40.737Z,81.26
2019-01-27T04:00:42.265Z,81.85
2019-01-27T04:04:43.660Z,80.97
2019-01-27T04:08:48.068Z,81.19
2019-01-27T04:12:49.499Z,80.81
2019-01-27T04:16:52.239Z,80.18
2019-01-27T04:20:53.666Z,80.66
2019-01-27T04:24:55.037Z,80.95
2019-01-27T04:28:56.338Z,81.09
2019-01-27T04:32:58.993Z,80.79
2019-01-27T04:37:00.542Z,80.11
2019-01-27T04:41:02.196Z,80.57
2019-01-27T04:45:03.646Z,80.11
2019-01-27T04:49:06.586Z,79.99
2019-01-27T04:53:08.052Z,79.94
2019-01-27T04:57:09.665Z,79.92
2019-01-27T05:01:11.480Z,79.53
2019-01-27T05:05:13.530Z,79.79
2019-01-27T05:09:15.550Z,80.05
2019-01-27T05:13:17.827Z,80.12
2019-01-27T05:17:19.037Z,79.55
2019-01-27T05:21:20.528Z,79.45
2019-01-27T05:25:21.761Z,79.62
2019-01-27T05:29:23.206Z,79.79
2019-01-27T05:33:24.590Z,79.14
2019-01-27T05:37:25.825Z,79.34
2019-01-27T05:41:27.159Z,79.48
2019-01-27T05:45:28.354Z,79.39
2019-01-27T05:49:29.662Z,79.14
2019-01-27T05:53:31.604Z,79.23
2019-01-27T05:57:32.940Z,79.66
2019-01-27T06:01:34.229Z,78.90
2019-01-27T06:05:35.523Z,78.75
2019-01-27T06:09:36.869Z,78.75
2019-01-27T06:13:38.225Z,78.95
2019-01-27T06:17:39.465Z,79.12
2019-01-27T06:21:40.695Z,78.94
2019-01-27T06:25:41.998Z,78.82
2019-01-27T06:29:46.419Z,78.79
2019-01-27T06:34:09.290Z,78.23
2019-01-27T06:38:10.477Z,78.68
2019-01-27T06:42:11.612Z,78.88
2019-01-27T06:46:12.942Z,78.73
2019-01-27T06:50:14.317Z,78.76
2019-01-27T06:54:15.616Z,78.86
2019-01-27T06:58:17.366Z,78.25
2019-01-27T07:02:40.501Z,78.31
2019-01-27T07:06:53.640Z,78.15
2019-01-27T07:11:16.740Z,78.42
2019-01-27T07:15:48.893Z,78.51
2019-01-27T07:20:29.438Z,78.28
2019-01-27T07:24:44.037Z,77.75
2019-01-27T07:29:06.802Z,77.13
2019-01-27T07:33:27.005Z,77.75
2019-01-27T07:37:35.131Z,78.23
2019-01-27T07:41:46.425Z,78.26
2019-01-27T07:46:09.295Z,78.17
2019-01-27T07:50:42.162Z,78.52
2019-01-27T07:55:05.343Z,78.50
2019-01-27T07:59:19.918Z,77.84
2019-01-27T08:03:49.544Z,77.31
2019-01-27T08:08:12.920Z,77.33
2019-01-27T08:12:25.243Z,77.11
2019-01-27T08:16:48.525Z,77.84
2019-01-27T08:21:00.137Z,77.90
2019-01-27T08:25:16.729Z,78.42
2019-01-27T08:29:41.063Z,77.98
2019-01-27T08:34:04.195Z,77.37
2019-01-27T08:38:30.437Z,77.44
2019-01-27T08:42:58.965Z,77.55
2019-01-27T08:47:03.564Z,77.19
2019-01-27T08:51:05.117Z,77.26
2019-01-27T08:55:06.730Z,78.63
2019-01-27T08:59:07.951Z,77.93
2019-01-27T09:03:30.581Z,77.80
2019-01-27T09:07:48.995Z,77.34
2019-01-27T09:12:21.566Z,76.84
2019-01-27T09:16:35.424Z,77.20
2019-01-27T09:20:48.860Z,77.56
2019-01-27T09:25:23.931Z,77.09
2019-01-27T09:29:42.537Z,78.24
2019-01-27T09:34:13.131Z,76.90
2019-01-27T09:38:30.652Z,78.08
2019-01-27T09:42:49.838Z,78.18
2019-01-27T09:47:04.814Z,80.53
2019-01-27T09:51:14.885Z,80.74
2019-01-27T09:55:23.508Z,80.50
2019-01-27T09:59:42.394Z,80.41
2019-01-27T10:04:15.739Z,80.21
2019-01-27T10:08:41.959Z,79.93
2019-01-27T10:12:51.968Z,78.11
2019-01-27T10:17:01.886Z,77.85
2019-01-27T10:21:24.132Z,77.52
2019-01-27T10:25:47.094Z,78.13
2019-01-27T10:30:06.062Z,78.75
2019-01-27T10:34:18.277Z,79.12
2019-01-27T10:38:35.312Z,78.87
2019-01-27T10:42:53.986Z,78.92
2019-01-27T10:47:06.810Z,78.82
2019-01-27T10:51:27.116Z,78.66
2019-01-27T10:56:02.682Z,79.21
2019-01-27T11:00:19.596Z,79.17
2019-01-27T11:04:39.596Z,79.20
2019-01-27T11:08:56.630Z,79.30
2019-01-27T11:13:16.614Z,79.13
2019-01-27T11:17:39.903Z,78.83
2019-01-27T11:21:59.063Z,78.57
2019-01-27T11:26:31.763Z,78.54
2019-01-27T11:30:38.922Z,78.59
2019-01-27T11:35:01.927Z,78.42
2019-01-27T11:39:35.675Z,79.38
2019-01-27T11:44:01.777Z,79.18
2019-01-27T11:48:32.126Z,79.09
2019-01-27T11:52:37.274Z,78.99
2019-01-27T11:56:38.567Z,79.35
2019-01-27T12:00:44.602Z,79.17
2019-01-27T12:04:45.915Z,78.88
2019-01-27T12:08:48.664Z,79.01
2019-01-27T12:12:49.961Z,78.70
2019-01-27T12:16:51.079Z,78.10
2019-01-27T12:20:52.678Z,77.57
2019-01-27T12:24:53.819Z,77.94
2019-01-27T12:28:54.984Z,77.85
2019-01-27T12:32:56.381Z,77.92
2019-01-27T12:36:57.860Z,78.22
2019-01-27T12:40:59.715Z,77.48
2019-01-27T12:45:01.184Z,77.57
2019-01-27T12:49:02.473Z,78.45
2019-01-27T12:53:03.617Z,78.40
2019-01-27T12:57:04.736Z,77.97
2019-01-27T13:01:10.282Z,78.07
2019-01-27T13:05:11.562Z,78.95
2019-01-27T13:09:12.846Z,79.18
2019-01-27T13:13:14.105Z,80.39
2019-01-27T13:17:19.105Z,79.61
2019-01-27T13:21:20.522Z,79.37
2019-01-27T13:25:22.344Z,78.84
2019-01-27T13:29:23.626Z,79.20
2019-01-27T13:33:25.906Z,79.07
2019-01-27T13:37:27.170Z,78.72
2019-01-27T13:41:28.535Z,79.16
2019-01-27T13:45:29.903Z,79.36
2019-01-27T13:49:31.086Z,78.39
2019-01-27T13:53:32.620Z,79.52
2019-01-27T13:57:34.461Z,79.54
2019-01-27T14:01:36.070Z,79.72
2019-01-27T14:05:37.356Z,80.12
2019-01-27T14:09:38.580Z,79.63
2019-01-27T14:13:39.944Z,79.74
2019-01-27T14:17:41.481Z,79.76
2019-01-27T14:21:42.825Z,79.97
2019-01-27T14:25:44.402Z,79.75
2019-01-27T14:29:46.060Z,80.10
2019-01-27T14:33:47.399Z,80.36
2019-01-27T14:37:48.825Z,80.59
2019-01-27T14:41:50.117Z,80.16
2019-01-27T14:45:51.408Z,79.48
2019-01-27T14:49:52.552Z,80.05
2019-01-27T14:53:53.904Z,79.64
2019-01-27T14:57:55.165Z,80.25
2019-01-27T15:01:56.455Z,80.43
2019-01-27T15:05:57.792Z,81.47
2019-01-27T15:09:59.344Z,81.19
2019-01-27T15:14:00.514Z,80.92
2019-01-27T15:18:01.736Z,81.17
2019-01-27T15:22:02.929Z,80.58
2019-01-27T15:26:04.248Z,80.87
2019-01-27T15:30:06.308Z,80.41
2019-01-27T15:34:07.778Z,80.36
2019-01-27T15:38:09.072Z,80.13
2019-01-27T15:42:12.548Z,80.24
2019-01-27T15:46:18.142Z,79.82
2019-01-27T15:50:21.112Z,80.52
2019-01-27T15:54:22.402Z,79.79
2019-01-27T15:58:23.724Z,79.42
2019-01-27T16:02:25.045Z,79.73
2019-01-27T16:06:26.324Z,79.76
2019-01-27T16:10:28.983Z,79.56
2019-01-27T16:14:31.510Z,79.94
2019-01-27T16:18:34.264Z,80.13
2019-01-27T16:22:36.542Z,80.03
2019-01-27T16:26:37.901Z,79.51
2019-01-27T16:30:53.042Z,79.85
2019-01-27T16:35:01.986Z,79.48
2019-01-27T16:39:03.490Z,80.06
2019-01-27T16:43:06.591Z,80.34
2019-01-27T16:47:08.917Z,80.22
2019-01-27T16:51:10.411Z,80.77
2019-01-27T16:55:13.858Z,80.40
2019-01-27T16:59:16.205Z,80.52
2019-01-27T17:03:17.446Z,80.06
2019-01-27T17:07:18.605Z,80.91
2019-01-27T17:11:19.870Z,80.12
2019-01-27T17:15:26.497Z,80.23
2019-01-27T17:19:32.169Z,79.93
2019-01-27T17:23:34.456Z,79.32
2019-01-27T17:27:35.580Z,79.48
2019-01-27T17:31:36.906Z,80.39
2019-01-27T17:35:38.014Z,81.22
2019-01-27T17:39:39.525Z,80.03
2019-01-27T17:43:40.993Z,80.33
2019-01-27T17:47:45.682Z,80.12
2019-01-27T17:51:49.601Z,80.02
2019-01-27T17:55:51.657Z,79.81
2019-01-27T18:00:14.816Z,79.70
2019-01-27T18:04:33.084Z,79.79
2019-01-27T18:08:44.937Z,80.27
2019-01-27T18:13:11.018Z,79.99
2019-01-27T18:17:12.589Z,80.20
2019-01-27T18:21:15.168Z,81.30
2019-01-27T18:25:16.588Z,80.80
2019-01-27T18:29:17.814Z,80.25
2019-01-27T18:33:19.493Z,80.32
2019-01-27T18:37:21.801Z,80.51
2019-01-27T18:41:23.374Z,80.44
2019-01-27T18:45:24.573Z,80.90
2019-01-27T18:49:30.742Z,81.36
2019-01-27T18:54:02.320Z,81.63
2019-01-27T18:58:25.369Z,81.81
2019-01-27T19:02:45.255Z,81.11
2019-01-27T19:07:17.446Z,81.61
2019-01-27T19:11:40.617Z,80.36
2019-01-27T19:15:59.587Z,80.51
2019-01-27T19:20:26.348Z,81.65
2019-01-27T19:24:52.177Z,80.56
2019-01-27T19:29:11.968Z,81.51
2019-01-27T19:33:37.915Z,82.47
2019-01-27T19:37:54.543Z,82.53
2019-01-27T19:42:04.154Z,82.62
2019-01-27T19:46:19.947Z,82.40
2019-01-27T19:50:42.946Z,81.50
2019-01-27T19:54:57.471Z,81.95
2019-01-27T19:59:05.126Z,82.01
2019-01-27T20:03:40.388Z,81.79
2019-01-27T20:08:00.477Z,81.82
2019-01-27T20:12:18.087Z,81.90
2019-01-27T20:16:28.462Z,81.86
2019-01-27T20:20:54.144Z,81.94
2019-01-27T20:25:12.877Z,81.92
2019-01-27T20:29:40.436Z,81.66
2019-01-27T20:33:59.226Z,81.89
2019-01-27T20:38:18.194Z,81.72
2019-01-27T20:42:40.851Z,81.70
2019-01-27T20:46:58.296Z,82.20
2019-01-27T20:51:24.549Z,82.30
2019-01-27T20:55:47.197Z,82.48
2019-01-27T21:00:07.252Z,82.20
2019-01-27T21:04:23.029Z,82.01
2019-01-27T21:08:33.069Z,82.44
2019-01-27T21:12:52.948Z,83.09
2019-01-27T21:17:13.164Z,83.20
2019-01-27T21:21:15.734Z,83.26
2019-01-27T21:25:16.824Z,83.11
2019-01-27T21:29:18.646Z,83.23
2019-01-27T21:33:20.160Z,83.47
2019-01-27T21:37:21.321Z,83.32
2019-01-27T21:41:22.619Z,83.36
2019-01-27T21:45:23.948Z,83.46
2019-01-27T21:49:25.369Z,83.61
2019-01-27T21:53:26.823Z,83.87
2019-01-27T21:57:28.160Z,83.77
2019-01-27T22:01:29.445Z,83.82
2019-01-27T22:05:30.858Z,83.35
2019-01-27T22:09:32.086Z,82.84
2019-01-27T22:13:34.283Z,82.80
2019-01-27T22:17:35.390Z,82.64
2019-01-27T22:21:36.569Z,82.56
2019-01-27T22:25:37.687Z,82.39
2019-01-27T22:29:39.025Z,82.57
2019-01-27T22:33:40.210Z,82.76
2019-01-27T22:37:41.332Z,82.72
2019-01-27T22:41:42.504Z,82.99
2019-01-27T22:45:43.841Z,83.07
2019-01-27T22:49:45.343Z,83.28
2019-01-27T22:53:46.768Z,83.63
2019-01-27T22:57:47.965Z,83.81
2019-01-27T23:01:49.171Z,83.98
2019-01-27T23:05:50.361Z,83.98
2019-01-27T23:09:51.840Z,84.06
2019-01-27T23:13:54.652Z,83.89
2019-01-27T23:17:55.754Z,83.81
2019-01-27T23:21:56.956Z,83.76
2019-01-27T23:25:58.145Z,83.71
2019-01-27T23:30:00.450Z,83.64
2019-01-27T23:34:01.787Z,83.39
2019-01-27T23:38:02.914Z,83.07
2019-01-27T23:42:04.107Z,83.01
2019-01-27T23:46:05.349Z,82.59
2019-01-27T23:50:06.964Z,82.45
2019-01-27T23:54:08.438Z,82.27
2019-01-27T23:58:09.642Z,82.01
